Mateo — YP2618 — position and weather

sailwx.info

Track history (hours):
 
Tides and Currents Weather Stations Pressure Air Temp Water Temp Dewpoint Dewpoint Depression Visibility Wind Speed Wind Dir Waves Ship Positions

Mateo

Last reported at 2018-Jul-07 09:29 UTC. Time now 2018-Jul-18 22:26 UTC.
Position N 44°17' E 028°04'.
Warning: this ship's position is 11 days out of date.

Length 67 m; draft 2.6 m.

Type: Cargo ship. MMSI: 264162618.

Date/timePositionNaut miles runAvg speedWind from/ knotsBaromVisibWave heightAir tempDewpointWater temp
2018-Jul-07 09:29N 44°17' E 028°04'2 4.7
2018-Jul-07 09:00N 44°16' E 028°07'4 7.4
2018-Jul-07 08:30N 44°16' E 028°12'4 7.5
2018-Jul-07 08:00N 44°15' E 028°17'3 6.6
2018-Jul-07 07:30N 44°14' E 028°22'4 7.1
2018-Jul-07 07:00N 44°11' E 028°24'4 7.2
2018-Jul-07 06:24N 44°07' E 028°27'3 7.0
2018-Jul-07 05:58N 44°06' E 028°31'5 6.9
2018-Jul-07 05:18N 44°06' E 028°37'0 0.1
2018-Jul-07 04:57N 44°06' E 028°37'2 3.5
2018-Jul-07 04:31N 44°07' E 028°39'0 0.3
2018-Jul-07 03:58N 44°07' E 028°39'0 0.0
2018-Jul-07 03:28N 44°07' E 028°39'0 0.0
2018-Jul-07 02:58N 44°07' E 028°39'0 0.0
2018-Jul-07 02:28N 44°07' E 028°39'0 0.0
2018-Jul-07 01:58N 44°07' E 028°39'0 0.0
2018-Jul-07 01:28N 44°07' E 028°39'0 0.0
2018-Jul-07 00:58N 44°07' E 028°39'0 0.0
2018-Jul-07 00:25N 44°07' E 028°39'0 0.0
2018-Jul-06 23:58N 44°07' E 028°39'0 0.0
2018-Jul-06 23:28N 44°07' E 028°39'0 0.0
2018-Jul-06 22:55N 44°07' E 028°39'0 0.0
2018-Jul-06 22:28N 44°07' E 028°39'0 0.0
2018-Jul-06 21:55N 44°07' E 028°39'0 0.0
2018-Jul-06 21:28N 44°07' E 028°39'0 0.0
2018-Jul-06 20:55N 44°07' E 028°39'0 0.0
2018-Jul-06 20:28N 44°07' E 028°39'0 0.0
2018-Jul-06 19:58N 44°07' E 028°39'0 0.0
2018-Jul-06 19:28N 44°07' E 028°39'0 0.0
2018-Jul-06 18:58N 44°07' E 028°39'0 0.0
2018-Jul-06 18:28N 44°07' E 028°39'0 0.0
2018-Jul-06 17:52N 44°07' E 028°39'0 0.0
2018-Jul-06 17:25N 44°07' E 028°39'0 0.0
2018-Jul-06 16:58N 44°07' E 028°39'0 0.0
2018-Jul-06 16:28N 44°07' E 028°39'0 0.0
2018-Jul-06 15:55N 44°07' E 028°39'  
Track history (hours):
 
Tides and Currents Weather Stations Pressure Air Temp Water Temp Dewpoint Dewpoint Depression Visibility Wind Speed Wind Dir Waves Ship Positions

Mateo

Last reported at 2018-Jul-07 09:29 UTC. Time now 2018-Jul-18 22:26 UTC.
Position N 44°17' E 028°04'.
Warning: this ship's position is 11 days out of date.

Length 67 m; draft 2.6 m.

Type: Cargo ship. MMSI: 264162618.

Date/timePositionNaut miles runAvg speedWind from/ knotsBaromVisibWave heightAir tempDewpointWater temp
2018-Jul-07 09:29N 44°17' E 028°04'2 4.7
2018-Jul-07 09:00N 44°16' E 028°07'4 7.4
2018-Jul-07 08:30N 44°16' E 028°12'4 7.5
2018-Jul-07 08:00N 44°15' E 028°17'3 6.6
2018-Jul-07 07:30N 44°14' E 028°22'4 7.1
2018-Jul-07 07:00N 44°11' E 028°24'4 7.2
2018-Jul-07 06:24N 44°07' E 028°27'3 7.0
2018-Jul-07 05:58N 44°06' E 028°31'5 6.9
2018-Jul-07 05:18N 44°06' E 028°37'0 0.1
2018-Jul-07 04:57N 44°06' E 028°37'2 3.5
2018-Jul-07 04:31N 44°07' E 028°39'0 0.3
2018-Jul-07 03:58N 44°07' E 028°39'0 0.0
2018-Jul-07 03:28N 44°07' E 028°39'0 0.0
2018-Jul-07 02:58N 44°07' E 028°39'0 0.0
2018-Jul-07 02:28N 44°07' E 028°39'0 0.0
2018-Jul-07 01:58N 44°07' E 028°39'0 0.0
2018-Jul-07 01:28N 44°07' E 028°39'0 0.0
2018-Jul-07 00:58N 44°07' E 028°39'0 0.0
2018-Jul-07 00:25N 44°07' E 028°39'0 0.0
2018-Jul-06 23:58N 44°07' E 028°39'0 0.0
2018-Jul-06 23:28N 44°07' E 028°39'0 0.0
2018-Jul-06 22:55N 44°07' E 028°39'0 0.0
2018-Jul-06 22:28N 44°07' E 028°39'0 0.0
2018-Jul-06 21:55N 44°07' E 028°39'0 0.0
2018-Jul-06 21:28N 44°07' E 028°39'0 0.0
2018-Jul-06 20:55N 44°07' E 028°39'0 0.0
2018-Jul-06 20:28N 44°07' E 028°39'0 0.0
2018-Jul-06 19:58N 44°07' E 028°39'0 0.0
2018-Jul-06 19:28N 44°07' E 028°39'0 0.0
2018-Jul-06 18:58N 44°07' E 028°39'0 0.0
2018-Jul-06 18:28N 44°07' E 028°39'0 0.0
2018-Jul-06 17:52N 44°07' E 028°39'0 0.0
2018-Jul-06 17:25N 44°07' E 028°39'0 0.0
2018-Jul-06 16:58N 44°07' E 028°39'0 0.0
2018-Jul-06 16:28N 44°07' E 028°39'0 0.0
2018-Jul-06 15:55N 44°07' E 028°39'  

Dump ship's entire track history